createdAt,value
2022-08-21T00:02:17.622Z,104.22
2022-08-21T00:04:57.826Z,69.80
2022-08-21T00:07:26.465Z,7.55
2022-08-21T00:09:55.129Z,33.20
2022-08-21T00:12:23.672Z,7.23
2022-08-21T00:14:56.985Z,48.58
2022-08-21T00:17:26.997Z,79.28
2022-08-21T00:19:55.408Z,24.92
2022-08-21T00:22:25.737Z,170.73
2022-08-21T00:24:54.105Z,204.90
2022-08-21T00:27:25.284Z,236.20
2022-08-21T00:29:54.215Z,60.00
2022-08-21T00:32:27.641Z,43.20
2022-08-21T00:34:58.425Z,27.45
2022-08-21T00:37:30.588Z,8.93
2022-08-21T00:40:05.642Z,7.95
2022-08-21T00:42:33.825Z,7.45
2022-08-21T00:45:02.398Z,50.03
2022-08-21T00:47:31.928Z,142.50
2022-08-21T00:50:00.085Z,7.15
2022-08-21T00:52:30.956Z,109.30
2022-08-21T00:55:00.185Z,112.43
2022-08-21T00:57:33.730Z,7.30
2022-08-21T01:00:03.389Z,86.63
2022-08-21T01:02:33.196Z,5.25
2022-08-21T01:05:01.093Z,7.93
2022-08-21T01:07:29.156Z,74.68
2022-08-21T01:09:57.037Z,78.85
2022-08-21T01:12:28.583Z,5.43
2022-08-21T01:14:59.840Z,56.58
2022-08-21T01:17:29.178Z,23.23
2022-08-21T01:20:01.409Z,4.97
2022-08-21T01:22:30.918Z,87.40
2022-08-21T01:24:58.985Z,5.03
2022-08-21T01:27:27.010Z,94.35
2022-08-21T01:29:59.555Z,5.95
2022-08-21T01:32:27.908Z,60.97
2022-08-21T01:34:56.149Z,5.15
2022-08-21T01:37:24.706Z,82.15
2022-08-21T01:39:54.634Z,54.70
2022-08-21T01:42:22.568Z,234.38
2022-08-21T01:44:51.132Z,224.03
2022-08-21T01:47:23.069Z,86.00
2022-08-21T01:49:54.040Z,178.83
2022-08-21T01:52:24.281Z,115.57
2022-08-21T01:54:55.171Z,126.47
2022-08-21T01:57:26.071Z,53.67
2022-08-21T01:59:56.673Z,12.10
2022-08-21T02:02:24.902Z,6.13
2022-08-21T02:04:53.201Z,8.33
2022-08-21T02:07:28.479Z,93.47
2022-08-21T02:09:56.387Z,12.45
2022-08-21T02:12:25.584Z,12.52
2022-08-21T02:14:56.427Z,54.13
2022-08-21T02:17:24.641Z,45.17
2022-08-21T02:19:52.723Z,26.52
2022-08-21T02:22:21.185Z,105.60
2022-08-21T02:24:55.015Z,32.28
2022-08-21T02:27:26.647Z,29.55
2022-08-21T02:29:56.918Z,8.95
2022-08-21T02:32:25.368Z,88.10
2022-08-21T02:34:53.873Z,4.32
2022-08-21T02:37:21.814Z,76.88
2022-08-21T02:39:50.780Z,5.17
2022-08-21T02:42:19.681Z,5.22
2022-08-21T02:44:51.264Z,100.15
2022-08-21T02:47:19.180Z,76.85
2022-08-21T02:49:47.265Z,260.52
2022-08-21T02:52:15.638Z,97.35
2022-08-21T02:54:44.042Z,96.30
2022-08-21T02:57:12.029Z,7.43
2022-08-21T02:59:40.277Z,28.23
2022-08-21T03:02:09.738Z,82.05
2022-08-21T03:04:43.350Z,93.38
2022-08-21T03:07:14.114Z,51.87
2022-08-21T03:09:50.748Z,31.87
2022-08-21T03:12:24.009Z,139.10
2022-08-21T03:14:52.177Z,143.52
2022-08-21T03:17:29.378Z,57.33
2022-08-21T03:19:59.570Z,81.63
2022-08-21T03:22:27.912Z,46.53
2022-08-21T03:24:59.728Z,101.75
2022-08-21T03:27:28.100Z,59.47
2022-08-21T03:30:00.766Z,19.08
2022-08-21T03:32:31.441Z,97.60
2022-08-21T03:35:01.119Z,28.55
2022-08-21T03:37:29.500Z,12.23
2022-08-21T03:39:58.371Z,34.70
2022-08-21T03:42:26.565Z,28.33
2022-08-21T04:05:14.578Z,114.73
2022-08-21T04:07:44.041Z,53.25
2022-08-21T04:10:13.514Z,46.03
2022-08-21T04:12:49.279Z,52.92
2022-08-21T04:15:17.314Z,133.35
2022-08-21T04:17:45.260Z,65.82
2022-08-21T04:28:08.178Z,72.47
2022-08-21T05:23:36.572Z,210.80
2022-08-21T09:40:01.272Z,69.27
2022-08-21T09:45:12.172Z,11.23
2022-08-21T09:47:42.978Z,12.07
2022-08-21T09:50:15.520Z,10.75
2022-08-21T09:52:49.056Z,12.13
2022-08-21T09:55:52.036Z,11.70
2022-08-21T09:58:21.668Z,210.77
2022-08-21T10:00:59.755Z,401.63
2022-08-21T10:03:28.295Z,11.87
2022-08-21T10:06:00.450Z,10.45
2022-08-21T10:08:30.410Z,10.27
2022-08-21T10:11:06.447Z,11.40
2022-08-21T10:13:45.816Z,15.13
2022-08-21T10:16:24.543Z,133.23
2022-08-21T10:19:08.475Z,253.85
2022-08-21T10:21:42.507Z,11.65
2022-08-21T10:24:38.601Z,11.57
2022-08-21T10:27:16.764Z,37.08
2022-08-21T10:29:54.242Z,94.25
2022-08-21T10:32:40.748Z,498.35
2022-08-21T10:35:13.195Z,531.33
2022-08-21T10:37:49.705Z,22.00
2022-08-21T10:40:23.578Z,254.48
2022-08-21T10:43:10.994Z,402.45
2022-08-21T10:45:46.648Z,613.23
2022-08-21T10:48:20.329Z,718.45
2022-08-21T10:50:51.410Z,402.90
2022-08-21T10:53:48.277Z,684.25
2022-08-21T10:56:20.744Z,531.97
2022-08-21T10:59:06.669Z,486.77
2022-08-21T11:01:45.494Z,539.35
2022-08-21T11:04:18.573Z,577.20
2022-08-21T11:06:50.089Z,672.78
2022-08-21T11:09:22.496Z,758.72
2022-08-21T11:11:59.358Z,953.63
2022-08-21T11:14:49.944Z,981.75
2022-08-21T11:17:22.275Z,1174.28
2022-08-21T11:19:54.332Z,297.80
2022-08-21T11:22:26.814Z,39.72
2022-08-21T11:24:59.803Z,6.00
2022-08-21T11:27:34.982Z,324.10
2022-08-21T11:30:06.874Z,1019.67
2022-08-21T11:33:08.513Z,1076.25
2022-08-21T11:35:40.798Z,1106.22
2022-08-21T11:38:24.982Z,1180.93
2022-08-21T11:41:06.505Z,1226.10
2022-08-21T11:43:38.726Z,1175.32
2022-08-21T11:46:16.437Z,1077.25
2022-08-21T11:48:59.715Z,1023.80
2022-08-21T11:51:35.441Z,1016.03
2022-08-21T11:54:32.103Z,1027.88
2022-08-21T11:57:03.977Z,1018.78
2022-08-21T11:59:40.579Z,1054.82
2022-08-21T12:02:14.983Z,970.65
2022-08-21T12:04:47.750Z,1012.75
2022-08-21T12:07:18.392Z,1088.93
2022-08-21T12:09:56.084Z,1184.22
2022-08-21T12:12:29.752Z,979.15
2022-08-21T12:15:18.094Z,1068.70
2022-08-21T12:17:57.747Z,1081.88
2022-08-21T12:23:48.553Z,944.30
2022-08-21T12:26:24.807Z,1079.20
2022-08-21T12:29:10.176Z,640.17
2022-08-21T12:31:54.316Z,863.38
2022-08-21T12:34:24.718Z,1088.75
2022-08-21T12:36:58.098Z,718.22
2022-08-21T12:39:29.396Z,935.15
2022-08-21T12:42:02.183Z,1060.80
2022-08-21T12:44:40.163Z,1111.10
2022-08-21T12:47:15.266Z,1163.67
2022-08-21T12:49:50.027Z,1219.85
2022-08-21T12:52:22.816Z,1142.00
2022-08-21T12:54:50.957Z,785.70
2022-08-21T12:57:24.217Z,1100.90
2022-08-21T12:59:59.268Z,1099.22
2022-08-21T13:02:35.022Z,816.58
2022-08-21T13:05:06.194Z,856.50
2022-08-21T13:07:39.462Z,809.70
2022-08-21T13:10:18.891Z,877.55
2022-08-21T13:12:50.201Z,932.90
2022-08-21T13:15:33.111Z,608.67
2022-08-21T13:18:04.469Z,719.95
2022-08-21T13:20:35.344Z,768.47
2022-08-21T13:23:05.334Z,822.58
2022-08-21T13:25:39.423Z,1040.18
2022-08-21T13:28:12.432Z,938.38
2022-08-21T13:30:47.352Z,238.93
2022-08-21T13:33:18.442Z,592.90
2022-08-21T13:35:51.424Z,497.73
2022-08-21T13:38:27.331Z,500.70
2022-08-21T13:41:00.312Z,463.85
2022-08-21T13:43:30.701Z,496.42
2022-08-21T13:46:00.664Z,497.93
2022-08-21T13:48:30.831Z,439.83
2022-08-21T13:58:30.700Z,188.82
2022-08-21T14:06:02.252Z,203.70
2022-08-21T14:08:35.694Z,207.27
2022-08-21T14:11:07.428Z,234.88
2022-08-21T14:13:40.018Z,223.38
2022-08-21T14:16:22.118Z,264.43
2022-08-21T14:19:17.130Z,263.63
2022-08-21T14:21:48.090Z,180.88
2022-08-21T14:24:28.352Z,184.57
2022-08-21T14:26:59.554Z,222.50
2022-08-21T14:29:34.467Z,195.25
2022-08-21T14:32:21.470Z,198.43
2022-08-21T14:34:50.707Z,158.32
2022-08-21T14:37:19.348Z,161.77
2022-08-21T14:39:47.590Z,181.02
2022-08-21T14:42:18.246Z,187.27
2022-08-21T14:44:49.143Z,202.02
2022-08-21T14:47:18.431Z,192.77
2022-08-21T14:49:46.342Z,145.00
2022-08-21T14:52:14.212Z,160.47
2022-08-21T14:54:42.431Z,125.30
2022-08-21T14:57:13.369Z,125.43
2022-08-21T14:59:44.045Z,166.98
2022-08-21T15:02:12.354Z,123.80
2022-08-21T15:04:42.705Z,142.53
2022-08-21T15:07:10.558Z,134.60
2022-08-21T15:09:38.517Z,154.17
2022-08-21T15:12:08.767Z,196.43
2022-08-21T15:14:38.812Z,268.17
2022-08-21T15:17:09.854Z,326.58
2022-08-21T15:19:43.179Z,267.23
2022-08-21T15:22:19.050Z,270.40
2022-08-21T15:24:58.302Z,260.20
2022-08-21T15:27:26.507Z,287.77
2022-08-21T15:29:55.435Z,350.60
2022-08-21T15:32:25.757Z,343.50
2022-08-21T15:34:54.625Z,226.03
2022-08-21T15:37:25.190Z,213.98
2022-08-21T15:39:55.760Z,219.50
2022-08-21T15:42:27.857Z,194.07
2022-08-21T15:44:59.042Z,153.60
2022-08-21T15:47:33.024Z,144.27
2022-08-21T15:50:01.402Z,98.85
2022-08-21T15:52:30.890Z,75.57
2022-08-21T15:54:58.834Z,94.90
2022-08-21T15:57:27.832Z,92.30
2022-08-21T16:00:04.837Z,82.15
2022-08-21T16:02:41.396Z,86.28
2022-08-21T16:05:11.396Z,79.57
2022-08-21T16:07:42.445Z,96.75
2022-08-21T16:10:11.188Z,113.75
2022-08-21T16:12:43.097Z,119.70
2022-08-21T16:15:20.564Z,123.07
2022-08-21T16:20:43.830Z,170.82
2022-08-21T16:23:39.474Z,154.80
2022-08-21T16:26:33.835Z,123.13
2022-08-21T16:29:04.316Z,126.97
2022-08-21T16:31:33.730Z,136.40
2022-08-21T16:34:03.533Z,155.68
2022-08-21T16:36:31.886Z,156.68
2022-08-21T20:09:55.602Z,453.05
2022-08-21T20:14:55.271Z,416.13
2022-08-21T20:17:25.089Z,356.30
2022-08-21T20:19:55.000Z,394.95
2022-08-21T20:22:25.163Z,282.17
2022-08-21T20:24:55.537Z,267.70
2022-08-21T20:27:26.100Z,340.77
2022-08-21T20:29:55.648Z,222.10
2022-08-21T20:32:24.225Z,260.45
2022-08-21T20:34:55.002Z,291.38
2022-08-21T20:37:37.134Z,209.98
2022-08-21T20:40:10.131Z,239.02
2022-08-21T20:45:33.731Z,270.30
2022-08-21T20:48:04.726Z,280.27
